Time;durP1;ratioP1;P1;durP2;ratioP2;P2;SDS_P1;SDS_P2;PMS_P1;PMS_P2;Temp;Humidity;BMP_temperature;BMP_pressure;BME280_temperature;BME280_humidity;BME280_pressure;Samples;Min_cycle;Max_cycle;Signal;HPM_P1;HPM_P2
2022/11/30 00:02:20;;;;;;;29.03;17.90;;;10.50;99.90;;;;;;5058274;28;20448;-75
2022/11/30 00:04:46;;;;;;;28.30;17.87;;;10.60;99.90;;;;;;5059763;28;20203;-76
2022/11/30 00:07:12;;;;;;;31.73;18.37;;;10.60;99.90;;;;;;5059357;28;20248;-76
2022/11/30 00:09:37;;;;;;;42.47;19.70;;;10.60;99.90;;;;;;5057763;28;20758;-76
2022/11/30 00:12:03;;;;;;;32.80;19.27;;;10.60;99.90;;;;;;5060464;28;20180;-76
2022/11/30 00:14:29;;;;;;;29.10;18.77;;;10.60;99.90;;;;;;5058200;28;20210;-76
2022/11/30 00:16:54;;;;;;;30.83;18.87;;;10.60;99.90;;;;;;5060074;28;20671;-76
2022/11/30 00:19:20;;;;;;;29.03;18.03;;;10.60;99.90;;;;;;5057603;28;20187;-79
2022/11/30 00:21:45;;;;;;;30.40;19.00;;;10.60;99.90;;;;;;5061607;28;20179;-77
2022/11/30 00:24:11;;;;;;;25.50;16.80;;;10.60;99.90;;;;;;5059569;28;20224;-77
2022/11/30 00:26:37;;;;;;;28.07;19.47;;;10.60;99.90;;;;;;5046783;28;20278;-76
2022/11/30 00:29:03;;;;;;;28.37;18.57;;;10.60;99.90;;;;;;5055203;28;21294;-76
2022/11/30 00:31:28;;;;;;;30.37;18.00;;;10.60;99.90;;;;;;5057588;28;20274;-75
2022/11/30 00:33:54;;;;;;;27.43;18.13;;;10.60;99.90;;;;;;5063260;28;20210;-75
2022/11/30 00:36:21;;;;;;;25.10;16.37;;;10.60;99.90;;;;;;5060187;28;20551;-75
2022/11/30 00:38:47;;;;;;;23.87;17.50;;;10.60;99.90;;;;;;5058543;28;20184;-76
2022/11/30 00:41:13;;;;;;;26.87;17.23;;;10.60;99.90;;;;;;5061221;28;20418;-76
2022/11/30 00:43:39;;;;;;;31.47;19.03;;;10.60;99.90;;;;;;5059890;28;20465;-75
2022/11/30 00:46:05;;;;;;;28.57;17.93;;;10.60;99.90;;;;;;5057561;28;20497;-75
2022/11/30 00:48:31;;;;;;;26.97;18.03;;;10.60;99.90;;;;;;5060366;28;20410;-74
2022/11/30 00:50:57;;;;;;;24.70;17.10;;;10.60;99.90;;;;;;5056755;28;20519;-77
2022/11/30 00:53:22;;;;;;;29.07;17.33;;;10.60;99.90;;;;;;5061295;28;20233;-77
2022/11/30 00:55:48;;;;;;;27.70;17.43;;;10.60;99.90;;;;;;5058447;28;20249;-76
2022/11/30 00:58:14;;;;;;;29.70;17.47;;;10.60;99.90;;;;;;5059484;28;20211;-75
2022/11/30 01:00:40;;;;;;;29.57;20.27;;;10.60;99.90;;;;;;5057719;28;20215;-75
2022/11/30 01:03:06;;;;;;;27.10;18.07;;;10.60;99.90;;;;;;5057719;28;20453;-75
2022/11/30 01:05:33;;;;;;;31.83;19.03;;;10.60;99.90;;;;;;5058210;28;20203;-75
2022/11/30 01:07:59;;;;;;;31.13;19.93;;;10.60;99.90;;;;;;5054821;28;20532;-75
2022/11/30 01:10:25;;;;;;;29.30;18.47;;;10.60;99.90;;;;;;5057474;28;20433;-75
2022/11/30 01:12:52;;;;;;;28.00;17.40;;;10.50;99.90;;;;;;5059014;28;20483;-74
2022/11/30 01:15:17;;;;;;;29.87;18.63;;;10.60;99.90;;;;;;5057298;28;20597;-74
2022/11/30 01:17:43;;;;;;;32.47;18.40;;;10.60;99.90;;;;;;5059496;28;20518;-75
2022/11/30 01:20:08;;;;;;;30.27;18.60;;;10.60;99.90;;;;;;5057233;28;20185;-75
2022/11/30 01:22:34;;;;;;;29.87;19.57;;;10.60;99.90;;;;;;5061608;28;20175;-75
2022/11/30 01:25:00;;;;;;;31.97;19.77;;;10.60;99.90;;;;;;5052482;28;20226;-75
2022/11/30 01:27:26;;;;;;;33.10;20.33;;;10.60;99.90;;;;;;5059901;28;20779;-75
2022/11/30 01:29:51;;;;;;;28.67;17.90;;;10.60;99.90;;;;;;5058791;28;20195;-75
2022/11/30 01:32:17;;;;;;;31.97;19.20;;;10.60;99.90;;;;;;5058535;28;20211;-75
2022/11/30 01:34:42;;;;;;;34.70;19.87;;;10.60;99.90;;;;;;5056705;28;20661;-76
2022/11/30 01:37:08;;;;;;;28.80;18.90;;;10.60;99.90;;;;;;5061310;28;20237;-75
2022/11/30 01:39:33;;;;;;;31.87;19.50;;;10.60;99.90;;;;;;5056024;28;20186;-75
2022/11/30 01:41:59;;;;;;;30.10;18.73;;;10.60;99.90;;;;;;5059067;28;20195;-75
2022/11/30 01:44:27;;;;;;;33.20;19.43;;;10.50;99.90;;;;;;5056557;28;20211;-75
2022/11/30 01:47:05;;;;;;;31.73;20.20;;;10.50;99.90;;;;;;5058894;28;20624;-75
2022/11/30 01:49:38;;;;;;;34.13;17.50;;;10.50;99.90;;;;;;5040676;28;20433;-76
2022/11/30 01:52:09;;;;;;;35.07;18.63;;;10.50;99.90;;;;;;5057266;28;20794;-75
2022/11/30 01:54:50;;;;;;;33.53;18.17;;;10.40;99.90;;;;;;5055481;28;20461;-75
2022/11/30 01:57:21;;;;;;;36.63;18.30;;;10.30;99.90;;;;;;5051492;28;20595;-76
2022/11/30 01:59:50;;;;;;;32.57;18.33;;;10.30;99.90;;;;;;5040887;28;20449;-76
2022/11/30 02:02:21;;;;;;;39.70;19.00;;;10.30;99.90;;;;;;5058948;28;20422;-76
2022/11/30 02:04:47;;;;;;;34.97;18.40;;;10.30;99.90;;;;;;5060053;28;20461;-76
2022/11/30 02:07:12;;;;;;;39.53;19.40;;;10.30;99.90;;;;;;5057470;28;20437;-76
2022/11/30 02:09:43;;;;;;;50.63;21.43;;;10.20;99.90;;;;;;5062822;28;20190;-76
2022/11/30 02:12:29;;;;;;;44.10;18.30;;;10.20;99.90;;;;;;5059411;28;20191;-77
2022/11/30 02:15:00;;;;;;;41.40;19.30;;;10.20;99.90;;;;;;5061394;28;20476;-74
2022/11/30 02:17:49;;;;;;;40.03;20.20;;;10.20;99.90;;;;;;5061476;28;20461;-76
2022/11/30 02:20:34;;;;;;;36.20;19.87;;;10.20;99.90;;;;;;5056474;28;20444;-76
2022/11/30 02:23:19;;;;;;;40.87;19.40;;;10.20;99.90;;;;;;5061687;28;20413;-76
2022/11/30 02:26:17;;;;;;;46.13;21.33;;;10.20;99.90;;;;;;5059520;28;20453;-76
2022/11/30 02:28:54;;;;;;;40.83;18.80;;;10.20;99.90;;;;;;5061529;28;20634;-77
2022/11/30 02:31:25;;;;;;;45.93;20.07;;;10.20;99.90;;;;;;5060481;28;21005;-76
2022/11/30 02:33:52;;;;;;;41.47;20.07;;;10.20;99.90;;;;;;5063918;28;20517;-77
2022/11/30 02:36:19;;;;;;;38.70;19.60;;;10.20;99.90;;;;;;5062476;28;20456;-77
2022/11/30 02:38:45;;;;;;;43.33;20.50;;;10.20;99.90;;;;;;5060352;28;20510;-77
2022/11/30 02:41:11;;;;;;;37.97;18.87;;;10.20;99.90;;;;;;5063766;28;20478;-77
2022/11/30 02:43:38;;;;;;;38.90;20.80;;;10.20;99.90;;;;;;5060220;28;20182;-77
2022/11/30 02:46:22;;;;;;;38.83;20.83;;;10.20;99.90;;;;;;5060959;28;20191;-77
2022/11/30 02:49:10;;;;;;;51.10;21.50;;;10.20;99.90;;;;;;5060517;28;20424;-77
2022/11/30 02:51:38;;;;;;;45.00;19.83;;;10.20;99.90;;;;;;5042423;28;20421;-77
2022/11/30 02:54:04;;;;;;;35.40;19.10;;;10.20;99.90;;;;;;5061250;28;20445;-77
2022/11/30 02:56:30;;;;;;;37.40;19.73;;;10.20;99.90;;;;;;5059359;28;20437;-77
2022/11/30 02:58:56;;;;;;;47.80;21.30;;;10.20;99.90;;;;;;5058538;28;20236;-76
2022/11/30 03:01:21;;;;;;;42.40;21.17;;;10.20;99.90;;;;;;5063516;28;21271;-76
2022/11/30 03:03:47;;;;;;;38.17;19.53;;;10.20;99.90;;;;;;5062983;28;20175;-76
2022/11/30 03:06:12;;;;;;;42.50;20.80;;;10.20;99.90;;;;;;5060467;28;20203;-76
2022/11/30 03:08:38;;;;;;;43.20;22.00;;;10.20;99.90;;;;;;5062327;28;20868;-76
2022/11/30 03:11:04;;;;;;;37.10;19.60;;;10.20;99.90;;;;;;5061959;28;20280;-76
2022/11/30 03:13:33;;;;;;;42.37;18.83;;;10.20;99.90;;;;;;5062681;28;20214;-76
2022/11/30 03:16:06;;;;;;;40.23;19.70;;;10.20;99.90;;;;;;5059676;28;20457;-76
2022/11/30 03:18:32;;;;;;;34.33;18.87;;;10.20;99.90;;;;;;5064340;28;20465;-76
2022/11/30 03:20:57;;;;;;;34.80;19.60;;;10.20;99.90;;;;;;5061398;28;20437;-76
2022/11/30 03:23:23;;;;;;;37.17;20.97;;;10.20;99.90;;;;;;5064449;28;20191;-77
2022/11/30 03:25:48;;;;;;;33.63;19.00;;;10.20;99.90;;;;;;5062224;28;20282;-77
2022/11/30 03:28:14;;;;;;;31.90;17.90;;;10.20;99.90;;;;;;5062388;28;20559;-76
2022/11/30 03:30:39;;;;;;;44.17;20.60;;;10.20;99.90;;;;;;5043582;28;20186;-77
2022/11/30 03:33:05;;;;;;;35.70;17.97;;;10.20;99.90;;;;;;5055660;28;20188;-77
2022/11/30 03:35:30;;;;;;;39.50;19.53;;;10.20;99.90;;;;;;5055953;28;21006;-78
2022/11/30 03:37:56;;;;;;;38.17;19.90;;;10.20;99.90;;;;;;5058455;28;20195;-78
2022/11/30 03:40:22;;;;;;;38.20;18.83;;;10.20;99.90;;;;;;5061885;28;20187;-77
2022/11/30 03:42:47;;;;;;;38.73;20.07;;;10.20;99.90;;;;;;5061004;28;20209;-77
2022/11/30 03:45:13;;;;;;;34.07;20.10;;;10.20;99.90;;;;;;5061176;28;20222;-76
2022/11/30 03:47:38;;;;;;;32.10;18.13;;;10.20;99.90;;;;;;5042703;28;20240;-76
2022/11/30 03:50:05;;;;;;;36.97;19.20;;;10.20;99.90;;;;;;5060278;28;20179;-76
2022/11/30 03:52:30;;;;;;;40.63;19.93;;;10.30;99.90;;;;;;5045895;28;20677;-79
2022/11/30 03:54:56;;;;;;;31.33;18.43;;;10.30;99.90;;;;;;5058886;28;20505;-75
2022/11/30 03:57:21;;;;;;;36.47;19.27;;;10.30;99.90;;;;;;5057568;28;20324;-77
2022/11/30 03:59:47;;;;;;;32.47;18.00;;;10.20;99.90;;;;;;5062416;28;20180;-76
2022/11/30 04:02:12;;;;;;;31.53;17.80;;;10.30;99.90;;;;;;5059489;28;20186;-76
2022/11/30 04:04:38;;;;;;;37.10;20.23;;;10.30;99.90;;;;;;5063442;28;20191;-77
2022/11/30 04:07:04;;;;;;;37.03;20.07;;;10.30;99.90;;;;;;5059204;28;20274;-76
2022/11/30 04:09:30;;;;;;;33.00;19.33;;;10.20;99.90;;;;;;5058151;28;20433;-76
2022/11/30 04:11:55;;;;;;;36.43;19.20;;;10.20;99.90;;;;;;5059983;28;20195;-78
2022/11/30 04:14:21;;;;;;;42.80;17.60;;;10.20;99.90;;;;;;5058579;28;20187;-78
2022/11/30 04:16:46;;;;;;;35.93;18.60;;;10.30;99.90;;;;;;5061132;28;20242;-77
2022/11/30 04:19:12;;;;;;;31.07;18.80;;;10.20;99.90;;;;;;5054666;28;20227;-77
2022/11/30 04:21:37;;;;;;;33.30;18.67;;;10.20;99.90;;;;;;5059850;28;20184;-77
2022/11/30 04:24:03;;;;;;;31.37;17.80;;;10.30;99.90;;;;;;5057367;28;20183;-77
2022/11/30 04:26:28;;;;;;;33.60;18.33;;;10.30;99.90;;;;;;5059166;28;20257;-77
2022/11/30 04:28:54;;;;;;;29.77;16.87;;;10.20;99.90;;;;;;5060090;28;20180;-76
2022/11/30 04:31:19;;;;;;;27.83;16.47;;;10.20;99.90;;;;;;5060258;28;20317;-77
2022/11/30 04:33:45;;;;;;;24.23;14.93;;;10.20;99.90;;;;;;5058766;28;20187;-78
2022/11/30 04:36:19;;;;;;;25.67;15.67;;;10.20;99.90;;;;;;5060717;28;20684;-77
2022/11/30 04:38:45;;;;;;;25.27;15.73;;;10.20;99.90;;;;;;5058699;28;20263;-77
2022/11/30 04:41:11;;;;;;;21.97;14.73;;;10.20;99.90;;;;;;5044698;28;20975;-77
2022/11/30 04:43:36;;;;;;;25.83;15.83;;;10.20;99.90;;;;;;5060793;28;20430;-77
2022/11/30 04:46:03;;;;;;;24.63;15.10;;;10.20;99.90;;;;;;5056880;28;20578;-77
2022/11/30 04:48:29;;;;;;;23.97;13.97;;;10.20;99.90;;;;;;5058761;28;20187;-75
2022/11/30 04:51:03;;;;;;;26.00;17.20;;;10.20;99.90;;;;;;5059679;28;20945;-75
2022/11/30 04:53:28;;;;;;;24.93;14.77;;;10.20;99.90;;;;;;5060442;28;20187;-75
2022/11/30 04:55:54;;;;;;;26.47;16.97;;;10.20;99.90;;;;;;5058451;28;20502;-76
2022/11/30 04:58:20;;;;;;;23.77;15.17;;;10.20;99.90;;;;;;5059745;28;20629;-76
2022/11/30 05:00:45;;;;;;;24.27;15.97;;;10.20;99.90;;;;;;5056772;28;20194;-76
2022/11/30 05:03:11;;;;;;;26.37;15.90;;;10.20;99.90;;;;;;5057866;28;20187;-76
2022/11/30 05:05:36;;;;;;;23.17;15.90;;;10.20;99.90;;;;;;5057650;28;20588;-76
2022/11/30 05:08:02;;;;;;;28.47;16.77;;;10.20;99.90;;;;;;5058807;28;20187;-75
2022/11/30 05:10:28;;;;;;;29.20;15.90;;;10.20;99.90;;;;;;5055667;28;20182;-77
2022/11/30 05:12:55;;;;;;;25.40;15.30;;;10.10;99.90;;;;;;5056288;28;20242;-77
2022/11/30 05:15:21;;;;;;;28.83;15.03;;;10.20;99.90;;;;;;5054805;28;20449;-77
2022/11/30 05:17:47;;;;;;;29.97;17.23;;;10.20;99.90;;;;;;5058253;28;20479;-77
2022/11/30 05:20:12;;;;;;;25.63;15.63;;;10.20;99.90;;;;;;5060331;28;20183;-73
2022/11/30 05:22:38;;;;;;;28.20;16.07;;;10.20;99.90;;;;;;5058904;28;20179;-76
2022/11/30 05:25:03;;;;;;;27.50;17.23;;;10.20;99.90;;;;;;5055270;28;20700;-78
2022/11/30 05:27:29;;;;;;;27.93;16.00;;;10.20;99.90;;;;;;5060083;28;20583;-76
2022/11/30 05:29:54;;;;;;;27.23;15.00;;;10.20;99.90;;;;;;5057175;28;20176;-75
2022/11/30 05:32:20;;;;;;;25.90;16.30;;;10.20;99.90;;;;;;5059850;28;20213;-75
2022/11/30 05:34:46;;;;;;;26.80;17.13;;;10.20;99.90;;;;;;5060990;28;20198;-76
2022/11/30 05:37:11;;;;;;;24.30;16.27;;;10.20;99.90;;;;;;5062164;28;20219;-76
2022/11/30 05:39:37;;;;;;;25.60;16.67;;;10.20;99.90;;;;;;5059934;28;20561;-75
2022/11/30 05:42:02;;;;;;;20.93;15.53;;;10.20;99.90;;;;;;5063472;28;20240;-75
2022/11/30 05:44:28;;;;;;;27.70;16.80;;;10.20;99.90;;;;;;5058459;28;20186;-75
2022/11/30 05:46:53;;;;;;;23.30;15.70;;;10.20;99.90;;;;;;5059064;28;20210;-74
2022/11/30 05:49:19;;;;;;;22.93;16.90;;;10.20;99.90;;;;;;5059320;28;20237;-75
2022/11/30 05:51:44;;;;;;;27.53;15.20;;;10.20;99.90;;;;;;5058365;28;20266;-75
2022/11/30 05:54:10;;;;;;;24.97;16.07;;;10.20;99.90;;;;;;5056221;28;20279;-75
2022/11/30 05:56:35;;;;;;;28.53;16.40;;;10.20;99.90;;;;;;5055592;28;20291;-75
2022/11/30 05:59:01;;;;;;;24.20;15.93;;;10.20;99.90;;;;;;5055279;28;20282;-75
2022/11/30 06:01:28;;;;;;;24.43;16.17;;;10.20;99.90;;;;;;5055308;28;20758;-74
2022/11/30 06:03:55;;;;;;;24.30;15.87;;;10.20;99.90;;;;;;5059129;28;20206;-74
2022/11/30 06:06:22;;;;;;;24.27;16.37;;;10.20;99.90;;;;;;5057523;28;20499;-75
2022/11/30 06:08:48;;;;;;;27.57;16.97;;;10.20;99.90;;;;;;5056707;28;20445;-75
2022/11/30 06:11:15;;;;;;;26.77;17.60;;;10.20;99.90;;;;;;5058688;28;20433;-75
2022/11/30 06:13:40;;;;;;;24.17;17.50;;;10.20;99.90;;;;;;5058483;28;20481;-74
2022/11/30 06:16:07;;;;;;;23.27;15.67;;;10.20;99.90;;;;;;5060459;28;20471;-74
2022/11/30 06:18:33;;;;;;;27.60;17.40;;;10.20;99.90;;;;;;5053288;28;20465;-74
2022/11/30 06:21:04;;;;;;;27.63;16.60;;;10.20;99.90;;;;;;5040093;28;20537;-74
2022/11/30 06:23:30;;;;;;;24.77;15.67;;;10.20;99.90;;;;;;5055980;28;20218;-78
2022/11/30 06:25:56;;;;;;;22.90;16.00;;;10.20;99.90;;;;;;5050288;28;20468;-76
2022/11/30 06:28:22;;;;;;;19.23;13.60;;;10.20;99.90;;;;;;5054320;28;21220;-74
2022/11/30 06:30:47;;;;;;;16.47;12.83;;;10.20;99.90;;;;;;5057175;28;20269;-74
2022/11/30 06:33:13;;;;;;;19.83;12.57;;;10.20;99.90;;;;;;5053399;28;20433;-75
2022/11/30 06:35:45;;;;;;;17.10;12.53;;;10.20;99.90;;;;;;5058669;28;20214;-73
2022/11/30 06:38:11;;;;;;;17.20;12.60;;;10.10;99.90;;;;;;5054311;28;20211;-73
2022/11/30 06:40:37;;;;;;;16.33;12.50;;;10.10;99.90;;;;;;5059981;28;21012;-73
2022/11/30 06:43:02;;;;;;;16.87;12.00;;;10.10;99.90;;;;;;5053598;28;20521;-73
2022/11/30 06:45:28;;;;;;;16.90;12.43;;;10.10;99.90;;;;;;5038187;28;20219;-73
2022/11/30 06:47:55;;;;;;;17.87;13.47;;;10.10;99.90;;;;;;5038666;28;20201;-73
2022/11/30 06:50:21;;;;;;;17.37;13.20;;;10.10;99.90;;;;;;5056697;28;20280;-73
2022/11/30 06:52:46;;;;;;;19.00;14.03;;;10.10;99.90;;;;;;5053123;28;20462;-72
2022/11/30 06:55:12;;;;;;;20.80;13.27;;;10.00;99.90;;;;;;5058068;28;20211;-72
2022/11/30 06:57:37;;;;;;;18.00;12.80;;;10.00;99.90;;;;;;5045434;28;20215;-74
2022/11/30 07:00:04;;;;;;;16.77;12.27;;;10.00;99.90;;;;;;5056614;28;20190;-76
2022/11/30 07:02:29;;;;;;;20.83;13.23;;;10.00;99.90;;;;;;5057425;28;20186;-76
2022/11/30 07:04:55;;;;;;;21.07;14.00;;;9.90;99.90;;;;;;5061272;28;20962;-76
2022/11/30 07:07:21;;;;;;;20.37;13.97;;;10.00;99.90;;;;;;5058377;28;20923;-74
2022/11/30 07:09:48;;;;;;;19.33;13.67;;;9.90;99.90;;;;;;5055597;28;20629;-73
2022/11/30 07:12:14;;;;;;;21.50;13.50;;;9.90;99.90;;;;;;5057205;28;20454;-79
2022/11/30 07:14:40;;;;;;;19.33;13.27;;;9.90;99.90;;;;;;5058863;28;20838;-80
2022/11/30 07:17:05;;;;;;;19.60;13.00;;;9.90;99.90;;;;;;5059201;28;20218;-79
2022/11/30 07:19:34;;;;;;;16.83;13.03;;;9.90;99.90;;;;;;5062450;28;20214;-76
2022/11/30 07:22:00;;;;;;;18.33;13.60;;;9.90;99.90;;;;;;5060221;28;20183;-77
2022/11/30 07:27:10;;;;;;;16.87;13.97;;;9.90;99.90;;;;;;5057950;28;20444;-73
2022/11/30 07:29:36;;;;;;;16.50;13.50;;;9.90;99.90;;;;;;5052485;28;20449;-70
2022/11/30 07:32:01;;;;;;;19.40;13.67;;;9.90;99.90;;;;;;5055990;28;20191;-73
2022/11/30 07:34:27;;;;;;;26.27;16.90;;;9.90;99.90;;;;;;5058638;28;20205;-72
2022/11/30 07:36:53;;;;;;;24.83;16.90;;;9.90;99.90;;;;;;5057726;28;20211;-71
2022/11/30 07:39:18;;;;;;;20.47;14.57;;;9.90;99.90;;;;;;5060621;28;20176;-71
2022/11/30 07:41:44;;;;;;;17.83;13.97;;;9.90;99.90;;;;;;5058264;28;20182;-71
2022/11/30 07:44:10;;;;;;;19.43;14.50;;;9.90;99.90;;;;;;5058365;28;20278;-71
2022/11/30 07:46:37;;;;;;;18.93;13.57;;;9.90;99.90;;;;;;5053845;28;20179;-69
2022/11/30 07:49:08;;;;;;;18.43;14.50;;;9.90;99.90;;;;;;5060329;28;20428;-70
2022/11/30 07:51:34;;;;;;;23.23;13.50;;;9.90;99.90;;;;;;5054954;28;20448;-70
2022/11/30 07:54:00;;;;;;;18.40;13.80;;;9.90;99.90;;;;;;5059626;28;20614;-70
2022/11/30 07:56:27;;;;;;;18.17;13.20;;;9.90;99.90;;;;;;5058115;28;20955;-71
2022/11/30 07:58:55;;;;;;;15.90;12.37;;;9.90;99.90;;;;;;5059064;28;20459;-74
2022/11/30 08:01:23;;;;;;;20.00;14.90;;;9.90;99.90;;;;;;5060408;28;20456;-71
2022/11/30 08:03:50;;;;;;;18.13;12.80;;;10.00;99.90;;;;;;5057312;28;20480;-72
2022/11/30 08:06:20;;;;;;;23.20;14.00;;;10.00;99.90;;;;;;5056125;28;20746;-72
2022/11/30 08:08:47;;;;;;;18.30;13.77;;;10.00;99.90;;;;;;5041405;28;20528;-71
2022/11/30 08:11:15;;;;;;;18.50;13.10;;;10.00;99.90;;;;;;5058944;28;20437;-72
2022/11/30 08:13:41;;;;;;;19.27;13.90;;;10.00;99.90;;;;;;5057358;28;20450;-72
2022/11/30 08:16:13;;;;;;;20.63;13.67;;;10.00;99.90;;;;;;5062636;28;20927;-76
2022/11/30 08:18:40;;;;;;;18.07;13.77;;;10.00;99.90;;;;;;5060990;28;20465;-74
2022/11/30 08:21:07;;;;;;;17.50;12.80;;;10.10;99.90;;;;;;5044176;28;20480;-73
2022/11/30 08:23:37;;;;;;;19.03;12.80;;;10.00;99.90;;;;;;5058914;28;20436;-73
2022/11/30 08:26:12;;;;;;;17.60;11.97;;;10.10;99.90;;;;;;5041369;28;21050;-73
2022/11/30 08:28:38;;;;;;;18.03;14.07;;;10.10;99.90;;;;;;5057861;28;20541;-74
2022/11/30 08:31:13;;;;;;;19.10;14.50;;;10.20;99.90;;;;;;5058048;28;20442;-72
2022/11/30 08:33:39;;;;;;;20.73;14.53;;;10.20;99.90;;;;;;5060562;28;20820;-71
2022/11/30 08:36:08;;;;;;;23.73;13.20;;;10.20;99.90;;;;;;5056651;28;20857;-72
2022/11/30 08:38:35;;;;;;;15.30;12.23;;;10.20;99.90;;;;;;5060564;28;20465;-72
2022/11/30 08:41:01;;;;;;;21.30;14.17;;;10.20;99.90;;;;;;5058700;28;20433;-73
2022/11/30 08:43:27;;;;;;;18.90;13.00;;;10.20;99.90;;;;;;5040542;28;20438;-73
2022/11/30 08:45:53;;;;;;;19.83;13.53;;;10.20;99.90;;;;;;5039831;28;20576;-73
2022/11/30 08:48:19;;;;;;;15.43;11.90;;;10.20;99.90;;;;;;5057976;28;20517;-72
2022/11/30 08:50:44;;;;;;;17.53;12.40;;;10.20;99.90;;;;;;5057737;28;20189;-71
2022/11/30 08:53:10;;;;;;;17.53;12.53;;;10.20;99.90;;;;;;5054234;28;20742;-72
2022/11/30 08:55:35;;;;;;;17.70;12.03;;;10.20;99.90;;;;;;5059415;28;20289;-72
2022/11/30 08:58:01;;;;;;;16.83;12.40;;;10.30;99.90;;;;;;5059768;28;20688;-71
2022/11/30 09:00:27;;;;;;;21.50;12.57;;;10.30;99.90;;;;;;5057996;28;20179;-71
2022/11/30 09:02:52;;;;;;;16.90;12.50;;;10.30;99.90;;;;;;5054778;28;20190;-69
2022/11/30 09:05:18;;;;;;;16.93;13.00;;;10.30;99.90;;;;;;5057016;28;20284;-69
2022/11/30 09:07:43;;;;;;;18.27;13.00;;;10.30;99.90;;;;;;5038649;28;20273;-70
2022/11/30 09:10:09;;;;;;;17.03;12.60;;;10.30;99.90;;;;;;5058101;28;20653;-72
2022/11/30 09:12:37;;;;;;;15.50;11.77;;;10.30;99.90;;;;;;5056709;28;20179;-71
2022/11/30 09:15:04;;;;;;;18.20;13.53;;;10.30;99.90;;;;;;5053586;28;20464;-72
2022/11/30 09:17:29;;;;;;;17.60;12.57;;;10.40;99.90;;;;;;5056610;28;20875;-72
2022/11/30 09:19:55;;;;;;;19.17;13.93;;;10.40;99.90;;;;;;5040996;28;20476;-72
2022/11/30 09:22:21;;;;;;;16.50;12.70;;;10.40;99.90;;;;;;5056687;28;20388;-72
2022/11/30 09:24:46;;;;;;;17.50;12.23;;;10.50;99.90;;;;;;5040521;28;20195;-72
2022/11/30 09:27:12;;;;;;;18.10;12.33;;;10.50;99.90;;;;;;5062192;28;20185;-72
2022/11/30 09:29:37;;;;;;;18.20;12.97;;;10.50;99.90;;;;;;5060060;28;20192;-72
2022/11/30 09:32:03;;;;;;;17.37;12.60;;;10.50;99.90;;;;;;5054432;28;20262;-73
2022/11/30 09:34:29;;;;;;;20.07;13.03;;;10.50;99.90;;;;;;5044027;28;20218;-71
2022/11/30 09:36:54;;;;;;;16.73;12.20;;;10.60;99.90;;;;;;5055875;28;20203;-72
2022/11/30 09:39:20;;;;;;;15.30;12.17;;;10.60;99.90;;;;;;5060909;28;20167;-72
2022/11/30 09:42:27;;;;;;;18.00;13.10;;;10.60;99.90;;;;;;5056603;28;20184;-70
2022/11/30 09:45:05;;;;;;;17.67;12.50;;;10.60;99.90;;;;;;5055225;28;20209;-72
2022/11/30 09:47:31;;;;;;;19.70;13.93;;;10.60;99.90;;;;;;5058260;28;20811;-72
2022/11/30 09:50:09;;;;;;;19.33;14.00;;;10.60;99.90;;;;;;5044942;28;20434;-74
2022/11/30 09:52:47;;;;;;;19.27;13.50;;;10.60;99.90;;;;;;5054946;28;20182;-73
2022/11/30 09:55:23;;;;;;;17.07;12.37;;;10.60;99.90;;;;;;5058000;28;20460;-72
2022/11/30 09:57:52;;;;;;;15.40;11.87;;;10.70;99.90;;;;;;5058354;28;20463;-75
2022/11/30 10:00:21;;;;;;;18.40;14.10;;;10.60;99.90;;;;;;5058080;28;20938;-75
2022/11/30 10:02:49;;;;;;;19.03;13.40;;;10.70;99.90;;;;;;5057364;28;20524;-71
2022/11/30 10:05:18;;;;;;;19.20;12.67;;;10.70;99.90;;;;;;5059821;28;20473;-72
2022/11/30 10:08:25;;;;;;;16.00;12.07;;;10.70;99.90;;;;;;5058714;28;20513;-78
2022/11/30 10:11:19;;;;;;;17.90;13.03;;;10.70;99.90;;;;;;5052552;28;20484;-73
2022/11/30 10:14:15;;;;;;;14.37;11.67;;;10.70;99.90;;;;;;5057182;28;20414;-73
2022/11/30 10:16:44;;;;;;;16.70;13.10;;;10.70;99.90;;;;;;5059470;28;20437;-71
2022/11/30 10:19:40;;;;;;;20.90;13.00;;;10.70;99.90;;;;;;5057971;28;20860;-72
2022/11/30 10:22:31;;;;;;;17.70;11.30;;;10.80;99.90;;;;;;5055161;28;20430;-75
2022/11/30 10:25:11;;;;;;;15.50;11.67;;;10.80;99.90;;;;;;5054111;28;20492;-73
2022/11/30 10:27:39;;;;;;;17.40;11.70;;;10.80;99.90;;;;;;5050120;28;20463;-73
2022/11/30 10:30:16;;;;;;;16.63;12.33;;;10.80;99.90;;;;;;5053451;28;20438;-73
2022/11/30 10:32:46;;;;;;;18.53;13.33;;;10.80;99.90;;;;;;5057598;28;20441;-74
2022/11/30 10:35:40;;;;;;;18.20;12.23;;;10.90;99.90;;;;;;5059524;28;21028;-73
2022/11/30 10:38:26;;;;;;;18.70;11.83;;;10.80;99.90;;;;;;5052494;28;20461;-73
2022/11/30 10:40:59;;;;;;;16.63;12.10;;;10.90;99.90;;;;;;5058048;28;20428;-73
2022/11/30 10:43:28;;;;;;;15.47;12.23;;;10.90;99.90;;;;;;5062392;28;20486;-73
2022/11/30 10:45:54;;;;;;;18.47;12.57;;;10.90;99.90;;;;;;5054925;28;20454;-74
2022/11/30 10:48:27;;;;;;;15.50;12.50;;;11.00;99.90;;;;;;5058228;28;20798;-73
2022/11/30 10:50:53;;;;;;;18.63;11.60;;;11.00;99.90;;;;;;5057263;28;20442;-75
2022/11/30 10:53:18;;;;;;;15.13;11.20;;;11.00;99.90;;;;;;5060577;28;20429;-69
2022/11/30 10:56:07;;;;;;;19.90;13.03;;;11.10;99.90;;;;;;5058171;28;20475;-74
2022/11/30 10:58:37;;;;;;;17.30;12.27;;;11.10;99.90;;;;;;5054440;28;20888;-73
2022/11/30 11:01:27;;;;;;;15.07;12.17;;;11.20;99.90;;;;;;5060430;28;20452;-69
2022/11/30 11:04:17;;;;;;;17.27;12.00;;;11.10;99.90;;;;;;5062218;28;20422;-72
2022/11/30 11:06:54;;;;;;;17.33;12.80;;;11.20;99.90;;;;;;5061904;28;20795;-72
2022/11/30 11:09:39;;;;;;;16.27;11.67;;;11.20;99.90;;;;;;5059293;28;20511;-73
2022/11/30 11:12:29;;;;;;;15.93;11.90;;;11.20;99.90;;;;;;5058463;28;20464;-72
2022/11/30 11:15:27;;;;;;;18.53;12.70;;;11.20;99.90;;;;;;5057229;28;20830;-74
2022/11/30 11:18:11;;;;;;;20.40;14.03;;;11.20;99.90;;;;;;5057201;28;20470;-72
2022/11/30 11:20:41;;;;;;;18.07;12.77;;;11.20;99.90;;;;;;5061264;28;20445;-72
2022/11/30 11:23:26;;;;;;;16.50;13.83;;;11.20;99.90;;;;;;5060104;28;20843;-72
2022/11/30 11:25:52;;;;;;;17.97;12.60;;;11.20;99.90;;;;;;5060921;28;20456;-73
2022/11/30 11:28:20;;;;;;;17.80;12.70;;;11.30;99.90;;;;;;5060678;28;20934;-72
2022/11/30 11:30:46;;;;;;;17.23;13.43;;;11.40;99.90;;;;;;5057916;28;20659;-72
2022/11/30 11:33:12;;;;;;;16.50;12.03;;;11.40;99.90;;;;;;5054624;28;20511;-74
2022/11/30 11:35:49;;;;;;;18.50;14.13;;;11.50;99.90;;;;;;5058311;28;20560;-72
2022/11/30 11:38:29;;;;;;;17.27;12.57;;;11.60;99.90;;;;;;5058769;28;20293;-72
2022/11/30 11:41:03;;;;;;;16.77;12.20;;;11.60;99.90;;;;;;5059122;28;20410;-72
2022/11/30 11:43:31;;;;;;;17.30;12.90;;;11.70;99.90;;;;;;5064373;28;20420;-71
2022/11/30 11:46:01;;;;;;;17.73;12.60;;;11.70;99.90;;;;;;5060251;28;20471;-72
2022/11/30 11:48:37;;;;;;;20.40;13.30;;;11.70;99.90;;;;;;5040361;28;20433;-73
2022/11/30 11:51:06;;;;;;;26.53;13.70;;;11.70;99.90;;;;;;5061815;28;20440;-73
2022/11/30 11:53:44;;;;;;;16.43;12.27;;;11.80;99.90;;;;;;5054781;28;20460;-72
2022/11/30 11:56:24;;;;;;;15.83;12.00;;;11.90;99.90;;;;;;5063012;28;20560;-73
2022/11/30 11:58:57;;;;;;;16.47;12.20;;;12.00;99.90;;;;;;5058312;28;20473;-70
2022/11/30 12:01:31;;;;;;;18.63;12.40;;;12.00;99.90;;;;;;5054963;28;20517;-71
2022/11/30 12:04:34;;;;;;;20.77;13.13;;;12.00;99.90;;;;;;5057232;28;20509;-70
2022/11/30 12:07:03;;;;;;;14.70;11.60;;;12.00;99.90;;;;;;5008685;28;20514;-72
2022/11/30 12:09:39;;;;;;;15.13;12.70;;;12.00;99.90;;;;;;5059539;28;21142;-72
2022/11/30 12:12:10;;;;;;;18.77;13.90;;;12.10;99.90;;;;;;5054714;28;20499;-72
2022/11/30 12:14:35;;;;;;;13.47;11.07;;;12.10;99.90;;;;;;5057693;28;20462;-71
2022/11/30 12:17:37;;;;;;;16.90;11.70;;;12.60;99.90;;;;;;5053603;28;20469;-71
2022/11/30 12:20:13;;;;;;;15.83;11.37;;;12.70;99.90;;;;;;5059174;28;20225;-74
2022/11/30 12:22:55;;;;;;;13.90;12.13;;;13.00;99.90;;;;;;5056389;28;20459;-74
2022/11/30 12:25:26;;;;;;;15.50;11.60;;;13.40;99.90;;;;;;5056536;28;20611;-73
2022/11/30 12:28:05;;;;;;;18.63;12.40;;;13.50;99.90;;;;;;5057925;28;20537;-75
2022/11/30 12:31:02;;;;;;;20.13;13.87;;;13.50;99.90;;;;;;5060597;28;20510;-76
2022/11/30 12:33:46;;;;;;;26.10;17.67;;;13.40;99.90;;;;;;5061153;28;20533;-73
2022/11/30 12:36:50;;;;;;;15.57;12.30;;;13.30;99.90;;;;;;5057196;28;20461;-75
2022/11/30 12:39:34;;;;;;;17.80;13.07;;;13.20;99.90;;;;;;5033305;28;20450;-73
2022/11/30 12:42:22;;;;;;;17.23;12.23;;;13.10;99.90;;;;;;5057371;28;20575;-74
2022/11/30 12:44:58;;;;;;;14.53;11.30;;;13.00;99.90;;;;;;5062920;28;20456;-72